Portada
METAR-TAF:

METAR-TAF

Aeroports :

Aeroport de Palma - Son Sant Joan

Palma, Espanya

latitud: 39-33N, longitud: 002-44E, altitud: 4 m

Observació

L'informe es va fer fa 35 minuts, a les 16:00 UTC
Vent 9 kt del Sud-Oest
Temperatura 17°C
Humitat 48%
Pressió 1022 hPa
Visibilitat 10 km o més
Escasses núvols a una alçada de 2000 ft

METAR: LEPA 131600Z 22009KT 9999 FEW020 17/06 Q1022 NOSIG

Hora: 18:35 (16:35 UTC)

Pronòstic

L'informe es va fer fa 5 hores i 35 minuts, a les 11:00 UTC
Pronòstic vàlid del 13 a les 12 UTC al 14 a les 12 UTC
Vent 10 kt del Sud-Oest
Visibilitat 10 km o més
Escasses núvols a una alçada de 3000 ft
Evolucionant progressivament
l' 13 a les 16 UTC al 13 a les 18 UTC
Vent 4 kt amb direcció variable
Evolucionant progressivament
l' 13 a les 21 UTC al 13 a les 24 UTC
Vent 5 kt del Nord-Est

TAF: LEPA 131100Z 1312/1412 22010KT 9999 FEW030 TX18/1312Z TN05/1406Z BECMG 1316/1318 VRB04KT BECMG 1321/1324 05005KT

Observacions i pronòstics meteorològics de més de 4000 aeroports (METAR i TAF).

Les estacions disponibles són els punts grocs i vermells al mapa.

Posi el ratolí al punt desitjat per veure el nom de l'estació.

Feu clic per veure les observacions i els pronòstics meteorològics.

Per canviar el mapa: feu clic els botons verds amb una creu de color negre per apropar; al botó verd amb un guió per allunyar la imatge; o en les fletxes verdes per a mapes adjacents.


METAR-TAF: